Fecha, hora, temperatura, viento dirección y velocidad, humedad y presión.

  • 20-03-2019 00:00:00 | 6.80°C | Nordeste |4.00 km/h | 83.00% | 986.90 hPa
  • 19-03-2019 23:00:00 | 7.20°C | Nordeste |5.00 km/h | 83.00% | 986.80 hPa
  • 19-03-2019 22:00:00 | 7.80°C | Nordeste |9.00 km/h | 78.00% | 986.50 hPa
  • 19-03-2019 21:00:00 | 8.50°C | Norte |12.00 km/h | 75.00% | 986.20 hPa
  • 19-03-2019 20:00:00 | 9.50°C | Nordeste |5.00 km/h | 72.00% | 985.70 hPa
  • 19-03-2019 19:00:00 | 11.30°C | Norte |9.00 km/h | 67.00% | 985.30 hPa
  • 19-03-2019 18:00:00 | 12.50°C | Norte |10.00 km/h | 69.00% | 985.00 hPa
  • 19-03-2019 17:00:00 | 12.70°C | Norte |14.00 km/h | 68.00% | 985.00 hPa
  • 19-03-2019 16:00:00 | 12.90°C | Norte |10.00 km/h | 68.00% | 985.20 hPa
  • 19-03-2019 15:00:00 | 13.10°C | Norte |10.00 km/h | 64.00% | 985.20 hPa
  • 19-03-2019 14:00:00 | 12.20°C | Norte |13.00 km/h | 66.00% | 986.10 hPa
  • 19-03-2019 13:00:00 | 11.20°C | Norte |9.00 km/h | 69.00% | 986.50 hPa
  • 19-03-2019 12:00:00 | 9.90°C | Nordeste |7.00 km/h | 74.00% | 986.80 hPa
  • 19-03-2019 11:00:00 | 9.30°C | Nordeste |7.00 km/h | 76.00% | 986.80 hPa
  • 19-03-2019 10:00:00 | 7.00°C | Nordeste |6.00 km/h | 86.00% | 986.80 hPa
  • 19-03-2019 09:00:00 | 5.30°C | Nordeste |5.00 km/h | 90.00% | 986.40 hPa
  • 19-03-2019 08:00:00 | 4.30°C | Norte |6.00 km/h | 92.00% | 985.80 hPa
  • 19-03-2019 07:00:00 | 4.10°C | Norte |4.00 km/h | 92.00% | 985.50 hPa
  • 19-03-2019 06:00:00 | 3.80°C | Norte |5.00 km/h | 94.00% | 985.40 hPa
  • 19-03-2019 05:00:00 | 3.90°C | Norte |5.00 km/h | 95.00% | 985.40 hPa
  • 19-03-2019 04:00:00 | 4.00°C | Norte |4.00 km/h | 96.00% | 985.50 hPa
  • 19-03-2019 03:00:00 | 4.30°C | Norte |4.00 km/h | 95.00% | 985.90 hPa
  • 19-03-2019 02:00:00 | 4.80°C | Norte |4.00 km/h | 93.00% | 986.20 hPa
  • 19-03-2019 01:00:00 | 4.60°C | Norte |2.00 km/h | 92.00% | 986.50 hPa
    • diseño web asturias Información sobre el estado de las mareas, altura de la marejada, temperatura del agua y otros datos de Gijón en Asturias.

      Surf Gijón